sensor_id;sensor_type;location;lat;lon;timestamp;temperature;humidity
26212;DHT22;13951;49.516;6.094;2023-08-06T00:00:01;15.20;99.90
26212;DHT22;13951;49.516;6.094;2023-08-06T00:02:34;15.20;99.90
26212;DHT22;13951;49.516;6.094;2023-08-06T00:05:07;15.20;99.90
26212;DHT22;13951;49.516;6.094;2023-08-06T00:07:40;15.20;99.90
26212;DHT22;13951;49.516;6.094;2023-08-06T00:10:14;15.20;99.90
26212;DHT22;13951;49.516;6.094;2023-08-06T00:12:47;15.20;99.90
26212;DHT22;13951;49.516;6.094;2023-08-06T00:15:22;15.20;99.90
26212;DHT22;13951;49.516;6.094;2023-08-06T00:17:55;15.20;99.90
26212;DHT22;13951;49.516;6.094;2023-08-06T00:20:28;15.20;99.90
26212;DHT22;13951;49.516;6.094;2023-08-06T00:23:01;15.20;99.90
26212;DHT22;13951;49.516;6.094;2023-08-06T00:25:36;15.20;99.90
26212;DHT22;13951;49.516;6.094;2023-08-06T00:28:09;15.10;99.90
26212;DHT22;13951;49.516;6.094;2023-08-06T00:30:43;15.10;99.90
26212;DHT22;13951;49.516;6.094;2023-08-06T00:33:16;15.10;99.90
26212;DHT22;13951;49.516;6.094;2023-08-06T00:35:50;15.10;99.90
26212;DHT22;13951;49.516;6.094;2023-08-06T00:38:23;15.00;99.90
26212;DHT22;13951;49.516;6.094;2023-08-06T00:40:56;15.00;99.90
26212;DHT22;13951;49.516;6.094;2023-08-06T00:43:29;15.00;99.90
26212;DHT22;13951;49.516;6.094;2023-08-06T00:46:03;15.00;99.90
26212;DHT22;13951;49.516;6.094;2023-08-06T00:48:36;14.90;99.90
26212;DHT22;13951;49.516;6.094;2023-08-06T00:51:10;15.00;99.90
26212;DHT22;13951;49.516;6.094;2023-08-06T00:53:44;15.00;99.90
26212;DHT22;13951;49.516;6.094;2023-08-06T00:56:17;15.00;99.90
26212;DHT22;13951;49.516;6.094;2023-08-06T00:58:51;15.00;99.90
26212;DHT22;13951;49.516;6.094;2023-08-06T01:01:24;15.00;99.90
26212;DHT22;13951;49.516;6.094;2023-08-06T01:03:57;14.90;99.90
26212;DHT22;13951;49.516;6.094;2023-08-06T01:06:58;14.90;99.90
26212;DHT22;13951;49.516;6.094;2023-08-06T01:12:42;14.90;99.90
26212;DHT22;13951;49.516;6.094;2023-08-06T01:15:28;14.90;99.90
26212;DHT22;13951;49.516;6.094;2023-08-06T01:18:02;14.80;99.90
26212;DHT22;13951;49.516;6.094;2023-08-06T01:20:35;14.80;99.90
26212;DHT22;13951;49.516;6.094;2023-08-06T01:23:08;14.80;99.90
26212;DHT22;13951;49.516;6.094;2023-08-06T01:26:33;14.80;99.90
26212;DHT22;13951;49.516;6.094;2023-08-06T01:28:52;14.80;99.90
26212;DHT22;13951;49.516;6.094;2023-08-06T01:31:31;14.80;99.90
26212;DHT22;13951;49.516;6.094;2023-08-06T01:34:11;14.70;99.90
26212;DHT22;13951;49.516;6.094;2023-08-06T01:36:47;14.70;99.90
26212;DHT22;13951;49.516;6.094;2023-08-06T01:39:20;14.70;99.90
26212;DHT22;13951;49.516;6.094;2023-08-06T01:41:54;14.60;99.90
26212;DHT22;13951;49.516;6.094;2023-08-06T01:44:27;14.60;99.90
26212;DHT22;13951;49.516;6.094;2023-08-06T01:47:01;14.60;99.90
26212;DHT22;13951;49.516;6.094;2023-08-06T01:49:35;14.60;99.90
26212;DHT22;13951;49.516;6.094;2023-08-06T01:52:08;14.60;99.90
26212;DHT22;13951;49.516;6.094;2023-08-06T01:54:42;14.60;99.90
26212;DHT22;13951;49.516;6.094;2023-08-06T01:57:16;14.50;99.90
26212;DHT22;13951;49.516;6.094;2023-08-06T01:59:49;14.50;99.90
26212;DHT22;13951;49.516;6.094;2023-08-06T02:02:23;14.50;99.90
26212;DHT22;13951;49.516;6.094;2023-08-06T02:04:56;14.50;99.90
26212;DHT22;13951;49.516;6.094;2023-08-06T02:07:31;14.50;99.90
26212;DHT22;13951;49.516;6.094;2023-08-06T02:10:04;14.50;99.90
26212;DHT22;13951;49.516;6.094;2023-08-06T02:12:37;14.50;99.90
26212;DHT22;13951;49.516;6.094;2023-08-06T02:15:10;14.60;99.90
26212;DHT22;13951;49.516;6.094;2023-08-06T02:17:44;14.60;99.90
26212;DHT22;13951;49.516;6.094;2023-08-06T02:20:17;14.60;99.90
26212;DHT22;13951;49.516;6.094;2023-08-06T02:22:50;14.60;99.90
26212;DHT22;13951;49.516;6.094;2023-08-06T02:25:24;14.60;99.90
26212;DHT22;13951;49.516;6.094;2023-08-06T02:27:57;14.60;99.90
26212;DHT22;13951;49.516;6.094;2023-08-06T02:30:30;14.60;99.90
26212;DHT22;13951;49.516;6.094;2023-08-06T02:33:04;14.60;99.90
26212;DHT22;13951;49.516;6.094;2023-08-06T02:35:37;14.60;99.90
26212;DHT22;13951;49.516;6.094;2023-08-06T02:38:10;14.60;99.90
26212;DHT22;13951;49.516;6.094;2023-08-06T02:40:47;14.60;99.90
26212;DHT22;13951;49.516;6.094;2023-08-06T02:43:21;14.60;99.90
26212;DHT22;13951;49.516;6.094;2023-08-06T02:46:01;14.60;99.90
26212;DHT22;13951;49.516;6.094;2023-08-06T02:48:35;14.60;99.90
26212;DHT22;13951;49.516;6.094;2023-08-06T02:51:08;14.60;99.90
26212;DHT22;13951;49.516;6.094;2023-08-06T02:53:41;14.70;99.90
26212;DHT22;13951;49.516;6.094;2023-08-06T02:56:17;14.70;99.90
26212;DHT22;13951;49.516;6.094;2023-08-06T02:59:14;14.60;99.90
26212;DHT22;13951;49.516;6.094;2023-08-06T03:02:10;14.60;99.90
26212;DHT22;13951;49.516;6.094;2023-08-06T03:05:05;14.70;99.90
26212;DHT22;13951;49.516;6.094;2023-08-06T03:07:43;14.70;99.90
26212;DHT22;13951;49.516;6.094;2023-08-06T03:10:22;14.70;99.90
26212;DHT22;13951;49.516;6.094;2023-08-06T03:12:58;14.60;99.90
26212;DHT22;13951;49.516;6.094;2023-08-06T03:15:31;14.60;99.90
26212;DHT22;13951;49.516;6.094;2023-08-06T03:18:04;14.60;99.90
26212;DHT22;13951;49.516;6.094;2023-08-06T03:20:38;14.60;99.90
26212;DHT22;13951;49.516;6.094;2023-08-06T03:23:12;14.70;99.90
26212;DHT22;13951;49.516;6.094;2023-08-06T03:25:46;14.70;99.90
26212;DHT22;13951;49.516;6.094;2023-08-06T03:28:19;14.70;99.90
26212;DHT22;13951;49.516;6.094;2023-08-06T03:31:03;14.70;99.90
26212;DHT22;13951;49.516;6.094;2023-08-06T03:33:43;14.80;99.90
26212;DHT22;13951;49.516;6.094;2023-08-06T03:36:20;14.80;99.90
26212;DHT22;13951;49.516;6.094;2023-08-06T03:38:55;14.80;99.90
26212;DHT22;13951;49.516;6.094;2023-08-06T03:41:28;14.80;99.90
26212;DHT22;13951;49.516;6.094;2023-08-06T03:44:02;14.80;99.90
26212;DHT22;13951;49.516;6.094;2023-08-06T03:46:37;14.80;99.90
26212;DHT22;13951;49.516;6.094;2023-08-06T03:49:12;14.70;99.90
26212;DHT22;13951;49.516;6.094;2023-08-06T03:51:46;14.70;99.90
26212;DHT22;13951;49.516;6.094;2023-08-06T03:54:19;14.70;99.90
26212;DHT22;13951;49.516;6.094;2023-08-06T03:56:52;14.70;99.90
26212;DHT22;13951;49.516;6.094;2023-08-06T03:59:26;14.70;99.90
26212;DHT22;13951;49.516;6.094;2023-08-06T04:02:02;14.70;99.90
26212;DHT22;13951;49.516;6.094;2023-08-06T04:04:35;14.70;99.90
26212;DHT22;13951;49.516;6.094;2023-08-06T04:07:08;14.70;99.90
26212;DHT22;13951;49.516;6.094;2023-08-06T04:10:11;14.70;99.90
26212;DHT22;13951;49.516;6.094;2023-08-06T04:12:44;14.70;99.90
26212;DHT22;13951;49.516;6.094;2023-08-06T04:15:17;14.70;99.90
26212;DHT22;13951;49.516;6.094;2023-08-06T04:17:50;14.70;99.90
26212;DHT22;13951;49.516;6.094;2023-08-06T04:20:23;14.70;99.90
26212;DHT22;13951;49.516;6.094;2023-08-06T04:22:59;14.70;99.90
26212;DHT22;13951;49.516;6.094;2023-08-06T04:25:38;14.70;99.90
26212;DHT22;13951;49.516;6.094;2023-08-06T04:28:12;14.70;99.90
26212;DHT22;13951;49.516;6.094;2023-08-06T04:30:45;14.70;99.90
26212;DHT22;13951;49.516;6.094;2023-08-06T04:33:18;14.70;99.90
26212;DHT22;13951;49.516;6.094;2023-08-06T04:35:55;14.70;99.90
26212;DHT22;13951;49.516;6.094;2023-08-06T04:38:30;14.70;99.90
26212;DHT22;13951;49.516;6.094;2023-08-06T04:41:03;14.70;99.90
26212;DHT22;13951;49.516;6.094;2023-08-06T04:43:37;14.70;99.90
26212;DHT22;13951;49.516;6.094;2023-08-06T04:46:10;14.70;99.90
26212;DHT22;13951;49.516;6.094;2023-08-06T04:48:44;14.60;99.90
26212;DHT22;13951;49.516;6.094;2023-08-06T04:51:17;14.70;99.90
26212;DHT22;13951;49.516;6.094;2023-08-06T04:53:50;14.70;99.90
26212;DHT22;13951;49.516;6.094;2023-08-06T04:56:23;14.60;99.90
26212;DHT22;13951;49.516;6.094;2023-08-06T04:58:56;14.70;99.90
26212;DHT22;13951;49.516;6.094;2023-08-06T05:01:30;14.70;99.90
26212;DHT22;13951;49.516;6.094;2023-08-06T05:04:03;14.70;99.90
26212;DHT22;13951;49.516;6.094;2023-08-06T05:06:36;14.70;99.90
26212;DHT22;13951;49.516;6.094;2023-08-06T05:09:11;14.70;99.90
26212;DHT22;13951;49.516;6.094;2023-08-06T05:11:44;14.70;99.90
26212;DHT22;13951;49.516;6.094;2023-08-06T05:14:17;14.70;99.90
26212;DHT22;13951;49.516;6.094;2023-08-06T05:16:50;14.70;99.90
26212;DHT22;13951;49.516;6.094;2023-08-06T05:19:23;14.70;99.90
26212;DHT22;13951;49.516;6.094;2023-08-06T05:21:56;14.70;99.90
26212;DHT22;13951;49.516;6.094;2023-08-06T05:24:29;14.60;99.90
26212;DHT22;13951;49.516;6.094;2023-08-06T05:27:03;14.60;99.90
26212;DHT22;13951;49.516;6.094;2023-08-06T05:29:36;14.70;99.90
26212;DHT22;13951;49.516;6.094;2023-08-06T05:32:09;14.70;99.90
26212;DHT22;13951;49.516;6.094;2023-08-06T05:34:43;14.70;99.90
26212;DHT22;13951;49.516;6.094;2023-08-06T05:37:16;14.80;99.90
26212;DHT22;13951;49.516;6.094;2023-08-06T05:39:49;14.80;99.90
26212;DHT22;13951;49.516;6.094;2023-08-06T05:42:22;14.80;99.90
26212;DHT22;13951;49.516;6.094;2023-08-06T05:44:56;14.80;99.90
26212;DHT22;13951;49.516;6.094;2023-08-06T05:47:29;14.80;99.90
26212;DHT22;13951;49.516;6.094;2023-08-06T05:50:02;14.80;99.90
26212;DHT22;13951;49.516;6.094;2023-08-06T05:52:35;14.80;99.90
26212;DHT22;13951;49.516;6.094;2023-08-06T05:55:08;14.80;99.90
26212;DHT22;13951;49.516;6.094;2023-08-06T05:57:41;14.80;99.90
26212;DHT22;13951;49.516;6.094;2023-08-06T06:00:14;14.80;99.90
26212;DHT22;13951;49.516;6.094;2023-08-06T06:02:50;14.80;99.90
26212;DHT22;13951;49.516;6.094;2023-08-06T06:05:23;14.80;99.90
26212;DHT22;13951;49.516;6.094;2023-08-06T06:07:56;14.80;99.90
26212;DHT22;13951;49.516;6.094;2023-08-06T06:10:30;14.80;99.90
26212;DHT22;13951;49.516;6.094;2023-08-06T06:13:03;14.80;99.90
26212;DHT22;13951;49.516;6.094;2023-08-06T06:15:36;14.80;99.90
26212;DHT22;13951;49.516;6.094;2023-08-06T06:18:10;15.00;99.90
26212;DHT22;13951;49.516;6.094;2023-08-06T06:20:43;15.10;99.90
26212;DHT22;13951;49.516;6.094;2023-08-06T06:23:16;15.30;99.90
26212;DHT22;13951;49.516;6.094;2023-08-06T06:25:50;15.50;99.90
26212;DHT22;13951;49.516;6.094;2023-08-06T06:28:24;15.50;99.90
26212;DHT22;13951;49.516;6.094;2023-08-06T06:31:01;15.50;99.90
26212;DHT22;13951;49.516;6.094;2023-08-06T06:33:35;15.40;99.90
26212;DHT22;13951;49.516;6.094;2023-08-06T06:36:08;15.40;99.90
26212;DHT22;13951;49.516;6.094;2023-08-06T06:38:42;15.40;99.90
26212;DHT22;13951;49.516;6.094;2023-08-06T06:41:15;15.40;99.90
26212;DHT22;13951;49.516;6.094;2023-08-06T06:43:49;15.30;99.90
26212;DHT22;13951;49.516;6.094;2023-08-06T06:46:22;15.20;99.90
26212;DHT22;13951;49.516;6.094;2023-08-06T06:48:55;15.20;99.90
26212;DHT22;13951;49.516;6.094;2023-08-06T06:51:28;15.10;99.90
26212;DHT22;13951;49.516;6.094;2023-08-06T06:54:01;15.00;99.90
26212;DHT22;13951;49.516;6.094;2023-08-06T06:56:34;15.00;99.90
26212;DHT22;13951;49.516;6.094;2023-08-06T06:59:08;15.00;99.90
26212;DHT22;13951;49.516;6.094;2023-08-06T07:01:41;15.00;99.90
26212;DHT22;13951;49.516;6.094;2023-08-06T07:04:14;15.00;99.90
26212;DHT22;13951;49.516;6.094;2023-08-06T07:06:47;15.00;99.90
26212;DHT22;13951;49.516;6.094;2023-08-06T07:09:20;15.00;99.90
26212;DHT22;13951;49.516;6.094;2023-08-06T07:11:53;15.00;99.90
26212;DHT22;13951;49.516;6.094;2023-08-06T07:14:28;15.00;99.90
26212;DHT22;13951;49.516;6.094;2023-08-06T07:17:01;15.00;99.90
26212;DHT22;13951;49.516;6.094;2023-08-06T07:19:34;15.00;99.90
26212;DHT22;13951;49.516;6.094;2023-08-06T07:22:08;15.10;99.90
26212;DHT22;13951;49.516;6.094;2023-08-06T07:24:41;15.10;99.90
26212;DHT22;13951;49.516;6.094;2023-08-06T07:27:14;15.20;99.90
26212;DHT22;13951;49.516;6.094;2023-08-06T07:29:47;15.10;99.90
26212;DHT22;13951;49.516;6.094;2023-08-06T07:32:22;15.10;99.90
26212;DHT22;13951;49.516;6.094;2023-08-06T07:34:55;15.10;99.90
26212;DHT22;13951;49.516;6.094;2023-08-06T07:37:32;15.10;99.90
26212;DHT22;13951;49.516;6.094;2023-08-06T07:40:05;15.00;99.90
26212;DHT22;13951;49.516;6.094;2023-08-06T07:42:39;14.90;99.90
26212;DHT22;13951;49.516;6.094;2023-08-06T07:45:12;14.90;99.90
26212;DHT22;13951;49.516;6.094;2023-08-06T07:47:45;14.80;99.90
26212;DHT22;13951;49.516;6.094;2023-08-06T07:50:18;14.80;99.90
26212;DHT22;13951;49.516;6.094;2023-08-06T07:52:51;14.70;99.90
26212;DHT22;13951;49.516;6.094;2023-08-06T07:55:25;14.60;99.90
26212;DHT22;13951;49.516;6.094;2023-08-06T07:57:58;14.60;99.90
26212;DHT22;13951;49.516;6.094;2023-08-06T08:00:32;14.60;99.90
26212;DHT22;13951;49.516;6.094;2023-08-06T08:03:06;14.60;99.90
26212;DHT22;13951;49.516;6.094;2023-08-06T08:05:39;14.60;99.90
26212;DHT22;13951;49.516;6.094;2023-08-06T08:08:13;14.60;99.90
26212;DHT22;13951;49.516;6.094;2023-08-06T08:10:47;14.60;99.90
26212;DHT22;13951;49.516;6.094;2023-08-06T08:13:20;14.60;99.90
26212;DHT22;13951;49.516;6.094;2023-08-06T08:15:57;14.70;99.90
26212;DHT22;13951;49.516;6.094;2023-08-06T08:18:31;14.60;99.90
26212;DHT22;13951;49.516;6.094;2023-08-06T08:21:04;14.60;99.90
26212;DHT22;13951;49.516;6.094;2023-08-06T08:23:37;14.60;99.90
26212;DHT22;13951;49.516;6.094;2023-08-06T08:26:12;14.70;99.90
26212;DHT22;13951;49.516;6.094;2023-08-06T08:28:45;14.70;99.90
26212;DHT22;13951;49.516;6.094;2023-08-06T08:31:18;14.80;99.90
26212;DHT22;13951;49.516;6.094;2023-08-06T08:33:51;14.90;99.90
26212;DHT22;13951;49.516;6.094;2023-08-06T08:36:28;14.90;99.90
26212;DHT22;13951;49.516;6.094;2023-08-06T08:39:01;14.80;99.90
26212;DHT22;13951;49.516;6.094;2023-08-06T08:41:37;14.80;99.90
26212;DHT22;13951;49.516;6.094;2023-08-06T08:44:11;14.80;99.90
26212;DHT22;13951;49.516;6.094;2023-08-06T08:46:47;14.80;99.90
26212;DHT22;13951;49.516;6.094;2023-08-06T08:49:21;14.80;99.90
26212;DHT22;13951;49.516;6.094;2023-08-06T08:51:56;14.70;99.90
26212;DHT22;13951;49.516;6.094;2023-08-06T08:54:31;14.80;99.90
26212;DHT22;13951;49.516;6.094;2023-08-06T08:57:05;14.70;99.90
26212;DHT22;13951;49.516;6.094;2023-08-06T08:59:38;14.70;99.90
26212;DHT22;13951;49.516;6.094;2023-08-06T09:02:13;14.80;99.90
26212;DHT22;13951;49.516;6.094;2023-08-06T09:04:48;14.80;99.90
26212;DHT22;13951;49.516;6.094;2023-08-06T09:07:23;14.80;99.90
26212;DHT22;13951;49.516;6.094;2023-08-06T09:09:58;15.00;99.90
26212;DHT22;13951;49.516;6.094;2023-08-06T09:12:34;15.10;99.90
26212;DHT22;13951;49.516;6.094;2023-08-06T09:15:07;15.20;99.90
26212;DHT22;13951;49.516;6.094;2023-08-06T09:17:40;15.10;99.90
26212;DHT22;13951;49.516;6.094;2023-08-06T09:20:14;15.10;99.90
26212;DHT22;13951;49.516;6.094;2023-08-06T09:22:48;15.10;99.90
26212;DHT22;13951;49.516;6.094;2023-08-06T09:25:23;15.10;99.90
26212;DHT22;13951;49.516;6.094;2023-08-06T09:28:02;15.10;99.90
26212;DHT22;13951;49.516;6.094;2023-08-06T09:30:37;15.00;99.90
26212;DHT22;13951;49.516;6.094;2023-08-06T09:33:11;15.00;99.90
26212;DHT22;13951;49.516;6.094;2023-08-06T09:35:46;15.00;99.90
26212;DHT22;13951;49.516;6.094;2023-08-06T09:38:19;15.00;99.90
26212;DHT22;13951;49.516;6.094;2023-08-06T09:40:53;15.00;99.90
26212;DHT22;13951;49.516;6.094;2023-08-06T09:43:26;15.00;99.90
26212;DHT22;13951;49.516;6.094;2023-08-06T09:46:00;15.10;99.90
26212;DHT22;13951;49.516;6.094;2023-08-06T09:48:33;15.10;99.90
26212;DHT22;13951;49.516;6.094;2023-08-06T09:51:08;15.00;99.90
26212;DHT22;13951;49.516;6.094;2023-08-06T09:53:42;15.10;99.90
26212;DHT22;13951;49.516;6.094;2023-08-06T09:56:17;15.20;99.90
26212;DHT22;13951;49.516;6.094;2023-08-06T09:58:51;15.20;99.90
26212;DHT22;13951;49.516;6.094;2023-08-06T10:01:24;15.30;99.90
26212;DHT22;13951;49.516;6.094;2023-08-06T10:03:57;15.40;99.90
26212;DHT22;13951;49.516;6.094;2023-08-06T10:06:35;15.50;99.90
26212;DHT22;13951;49.516;6.094;2023-08-06T10:09:11;15.70;99.90
26212;DHT22;13951;49.516;6.094;2023-08-06T10:11:49;15.70;99.90
26212;DHT22;13951;49.516;6.094;2023-08-06T10:14:29;15.80;99.90
26212;DHT22;13951;49.516;6.094;2023-08-06T10:17:03;16.00;99.90
26212;DHT22;13951;49.516;6.094;2023-08-06T10:19:37;16.20;99.90
26212;DHT22;13951;49.516;6.094;2023-08-06T10:22:14;16.10;99.90
26212;DHT22;13951;49.516;6.094;2023-08-06T10:24:52;16.10;99.90
26212;DHT22;13951;49.516;6.094;2023-08-06T10:27:31;15.90;99.90
26212;DHT22;13951;49.516;6.094;2023-08-06T10:30:25;15.80;99.90
26212;DHT22;13951;49.516;6.094;2023-08-06T10:33:00;15.80;99.90
26212;DHT22;13951;49.516;6.094;2023-08-06T10:35:41;15.60;99.90
26212;DHT22;13951;49.516;6.094;2023-08-06T10:38:19;15.50;99.90
26212;DHT22;13951;49.516;6.094;2023-08-06T10:43:33;15.60;99.90
26212;DHT22;13951;49.516;6.094;2023-08-06T10:46:13;15.70;99.90
26212;DHT22;13951;49.516;6.094;2023-08-06T10:48:53;15.60;99.90
26212;DHT22;13951;49.516;6.094;2023-08-06T10:51:27;15.70;99.90
26212;DHT22;13951;49.516;6.094;2023-08-06T10:54:00;15.80;99.90
26212;DHT22;13951;49.516;6.094;2023-08-06T10:56:40;15.90;99.90
26212;DHT22;13951;49.516;6.094;2023-08-06T10:59:15;16.10;99.90
26212;DHT22;13951;49.516;6.094;2023-08-06T11:01:48;16.20;99.90
26212;DHT22;13951;49.516;6.094;2023-08-06T11:04:21;16.30;99.90
26212;DHT22;13951;49.516;6.094;2023-08-06T11:06:57;16.20;99.90
26212;DHT22;13951;49.516;6.094;2023-08-06T11:09:31;16.30;99.90
26212;DHT22;13951;49.516;6.094;2023-08-06T11:12:11;16.30;99.90
26212;DHT22;13951;49.516;6.094;2023-08-06T11:14:50;16.30;99.90
26212;DHT22;13951;49.516;6.094;2023-08-06T11:17:23;16.30;99.90
26212;DHT22;13951;49.516;6.094;2023-08-06T11:20:02;16.30;99.90
26212;DHT22;13951;49.516;6.094;2023-08-06T11:22:37;16.40;99.90
26212;DHT22;13951;49.516;6.094;2023-08-06T11:25:11;16.60;99.90
26212;DHT22;13951;49.516;6.094;2023-08-06T11:27:44;17.00;99.90
26212;DHT22;13951;49.516;6.094;2023-08-06T11:30:17;17.40;99.90
26212;DHT22;13951;49.516;6.094;2023-08-06T11:32:51;17.50;99.90
26212;DHT22;13951;49.516;6.094;2023-08-06T11:35:24;17.80;99.90
26212;DHT22;13951;49.516;6.094;2023-08-06T11:37:57;18.10;99.90
26212;DHT22;13951;49.516;6.094;2023-08-06T11:40:32;18.40;99.90
26212;DHT22;13951;49.516;6.094;2023-08-06T11:43:06;18.70;99.90
26212;DHT22;13951;49.516;6.094;2023-08-06T11:45:40;18.70;99.90
26212;DHT22;13951;49.516;6.094;2023-08-06T11:48:14;18.50;99.90
26212;DHT22;13951;49.516;6.094;2023-08-06T11:50:47;18.20;99.90
26212;DHT22;13951;49.516;6.094;2023-08-06T11:53:20;18.00;99.90
26212;DHT22;13951;49.516;6.094;2023-08-06T11:55:53;17.70;99.90
26212;DHT22;13951;49.516;6.094;2023-08-06T11:58:27;17.40;99.90
26212;DHT22;13951;49.516;6.094;2023-08-06T12:01:03;17.20;99.90
26212;DHT22;13951;49.516;6.094;2023-08-06T12:03:40;17.10;99.90
26212;DHT22;13951;49.516;6.094;2023-08-06T12:06:13;17.10;99.90
26212;DHT22;13951;49.516;6.094;2023-08-06T12:08:46;17.30;99.90
26212;DHT22;13951;49.516;6.094;2023-08-06T12:11:21;17.60;99.90
26212;DHT22;13951;49.516;6.094;2023-08-06T12:13:55;18.00;99.90
26212;DHT22;13951;49.516;6.094;2023-08-06T12:16:29;18.10;99.90
26212;DHT22;13951;49.516;6.094;2023-08-06T12:19:03;18.40;99.90
26212;DHT22;13951;49.516;6.094;2023-08-06T12:21:37;18.50;99.90
26212;DHT22;13951;49.516;6.094;2023-08-06T12:24:10;18.50;99.90
26212;DHT22;13951;49.516;6.094;2023-08-06T12:26:43;18.30;99.90
26212;DHT22;13951;49.516;6.094;2023-08-06T12:29:16;18.20;99.90
26212;DHT22;13951;49.516;6.094;2023-08-06T12:31:49;18.20;99.90
26212;DHT22;13951;49.516;6.094;2023-08-06T12:34:23;18.20;99.90
26212;DHT22;13951;49.516;6.094;2023-08-06T12:37:02;18.00;99.90
26212;DHT22;13951;49.516;6.094;2023-08-06T12:39:36;18.10;99.90
26212;DHT22;13951;49.516;6.094;2023-08-06T12:42:10;18.30;99.90
26212;DHT22;13951;49.516;6.094;2023-08-06T12:44:43;18.40;99.90
26212;DHT22;13951;49.516;6.094;2023-08-06T12:47:17;18.60;99.90
26212;DHT22;13951;49.516;6.094;2023-08-06T12:49:53;18.70;99.90
26212;DHT22;13951;49.516;6.094;2023-08-06T12:52:27;18.50;99.90
26212;DHT22;13951;49.516;6.094;2023-08-06T12:55:01;18.40;99.90
26212;DHT22;13951;49.516;6.094;2023-08-06T12:57:34;18.40;99.90
26212;DHT22;13951;49.516;6.094;2023-08-06T13:00:27;18.50;99.90
26212;DHT22;13951;49.516;6.094;2023-08-06T13:03:00;18.60;99.90
26212;DHT22;13951;49.516;6.094;2023-08-06T13:05:33;18.50;99.90
26212;DHT22;13951;49.516;6.094;2023-08-06T13:08:07;18.50;99.90
26212;DHT22;13951;49.516;6.094;2023-08-06T13:10:40;18.40;99.90
26212;DHT22;13951;49.516;6.094;2023-08-06T13:13:14;18.40;99.90
26212;DHT22;13951;49.516;6.094;2023-08-06T13:15:48;18.50;99.90
26212;DHT22;13951;49.516;6.094;2023-08-06T13:18:21;18.50;99.90
26212;DHT22;13951;49.516;6.094;2023-08-06T13:20:55;18.50;99.90
26212;DHT22;13951;49.516;6.094;2023-08-06T13:23:28;18.50;99.90
26212;DHT22;13951;49.516;6.094;2023-08-06T13:26:02;18.50;99.90
26212;DHT22;13951;49.516;6.094;2023-08-06T13:28:35;18.50;99.90
26212;DHT22;13951;49.516;6.094;2023-08-06T13:31:08;18.60;99.90
26212;DHT22;13951;49.516;6.094;2023-08-06T13:33:41;18.60;99.90
26212;DHT22;13951;49.516;6.094;2023-08-06T13:36:14;18.60;99.90
26212;DHT22;13951;49.516;6.094;2023-08-06T13:38:48;18.50;99.90
26212;DHT22;13951;49.516;6.094;2023-08-06T13:41:21;18.30;99.90
26212;DHT22;13951;49.516;6.094;2023-08-06T13:43:55;18.00;99.90
26212;DHT22;13951;49.516;6.094;2023-08-06T13:46:28;17.80;99.90
26212;DHT22;13951;49.516;6.094;2023-08-06T13:49:01;17.60;99.90
26212;DHT22;13951;49.516;6.094;2023-08-06T13:51:34;17.30;99.90
26212;DHT22;13951;49.516;6.094;2023-08-06T13:54:09;17.00;99.90
26212;DHT22;13951;49.516;6.094;2023-08-06T13:56:42;16.90;99.90
26212;DHT22;13951;49.516;6.094;2023-08-06T13:59:15;16.80;99.90
26212;DHT22;13951;49.516;6.094;2023-08-06T14:01:51;16.80;99.90
26212;DHT22;13951;49.516;6.094;2023-08-06T14:04:28;16.80;99.90
26212;DHT22;13951;49.516;6.094;2023-08-06T14:07:01;17.00;99.90
26212;DHT22;13951;49.516;6.094;2023-08-06T14:09:34;17.10;99.90
26212;DHT22;13951;49.516;6.094;2023-08-06T14:12:07;17.40;99.90
26212;DHT22;13951;49.516;6.094;2023-08-06T14:14:41;17.50;99.90
26212;DHT22;13951;49.516;6.094;2023-08-06T14:17:14;17.50;99.90
26212;DHT22;13951;49.516;6.094;2023-08-06T14:19:49;17.60;99.90
26212;DHT22;13951;49.516;6.094;2023-08-06T14:22:22;17.50;99.90
26212;DHT22;13951;49.516;6.094;2023-08-06T14:24:57;17.60;99.90
26212;DHT22;13951;49.516;6.094;2023-08-06T14:27:30;17.70;99.90
26212;DHT22;13951;49.516;6.094;2023-08-06T14:30:03;17.70;99.90
26212;DHT22;13951;49.516;6.094;2023-08-06T14:32:37;17.70;99.90
26212;DHT22;13951;49.516;6.094;2023-08-06T14:35:10;17.70;99.90
26212;DHT22;13951;49.516;6.094;2023-08-06T14:37:44;17.60;99.90
26212;DHT22;13951;49.516;6.094;2023-08-06T14:40:23;17.50;99.90
26212;DHT22;13951;49.516;6.094;2023-08-06T14:42:58;17.50;99.90
26212;DHT22;13951;49.516;6.094;2023-08-06T14:45:31;17.50;99.90
26212;DHT22;13951;49.516;6.094;2023-08-06T14:48:05;17.50;99.90
26212;DHT22;13951;49.516;6.094;2023-08-06T14:50:38;17.50;99.90
26212;DHT22;13951;49.516;6.094;2023-08-06T14:53:13;17.50;99.90
26212;DHT22;13951;49.516;6.094;2023-08-06T14:55:46;17.50;99.90
26212;DHT22;13951;49.516;6.094;2023-08-06T14:58:19;17.60;99.90
26212;DHT22;13951;49.516;6.094;2023-08-06T15:00:52;17.60;99.90
26212;DHT22;13951;49.516;6.094;2023-08-06T15:03:26;17.60;99.90
26212;DHT22;13951;49.516;6.094;2023-08-06T15:06:01;17.50;99.90
26212;DHT22;13951;49.516;6.094;2023-08-06T15:08:36;17.30;99.90
26212;DHT22;13951;49.516;6.094;2023-08-06T15:11:09;17.20;99.90
26212;DHT22;13951;49.516;6.094;2023-08-06T15:13:44;17.10;99.90
26212;DHT22;13951;49.516;6.094;2023-08-06T15:16:17;17.00;99.90
26212;DHT22;13951;49.516;6.094;2023-08-06T15:18:50;16.90;99.90
26212;DHT22;13951;49.516;6.094;2023-08-06T15:21:23;16.80;99.90
26212;DHT22;13951;49.516;6.094;2023-08-06T15:23:57;16.60;99.90
26212;DHT22;13951;49.516;6.094;2023-08-06T15:26:30;16.50;99.90
26212;DHT22;13951;49.516;6.094;2023-08-06T15:29:03;16.50;99.90
26212;DHT22;13951;49.516;6.094;2023-08-06T15:31:37;16.50;99.90
26212;DHT22;13951;49.516;6.094;2023-08-06T15:34:11;16.50;99.90
26212;DHT22;13951;49.516;6.094;2023-08-06T15:36:44;16.40;99.90
26212;DHT22;13951;49.516;6.094;2023-08-06T15:39:17;16.50;99.90
26212;DHT22;13951;49.516;6.094;2023-08-06T15:41:52;16.50;99.90
26212;DHT22;13951;49.516;6.094;2023-08-06T15:44:27;16.40;99.90
26212;DHT22;13951;49.516;6.094;2023-08-06T15:47:00;16.40;99.90
26212;DHT22;13951;49.516;6.094;2023-08-06T15:49:34;16.40;99.90
26212;DHT22;13951;49.516;6.094;2023-08-06T15:52:07;16.40;99.90
26212;DHT22;13951;49.516;6.094;2023-08-06T15:54:41;16.40;99.90
26212;DHT22;13951;49.516;6.094;2023-08-06T15:57:14;16.40;99.90
26212;DHT22;13951;49.516;6.094;2023-08-06T15:59:49;16.40;99.90
26212;DHT22;13951;49.516;6.094;2023-08-06T16:02:22;16.40;99.90
26212;DHT22;13951;49.516;6.094;2023-08-06T16:04:59;16.40;99.90
26212;DHT22;13951;49.516;6.094;2023-08-06T16:07:32;16.40;99.90
26212;DHT22;13951;49.516;6.094;2023-08-06T16:10:05;16.50;99.90
26212;DHT22;13951;49.516;6.094;2023-08-06T16:12:39;16.50;99.90
26212;DHT22;13951;49.516;6.094;2023-08-06T16:15:17;16.60;99.90
26212;DHT22;13951;49.516;6.094;2023-08-06T16:17:52;16.60;99.90
26212;DHT22;13951;49.516;6.094;2023-08-06T16:20:28;16.60;99.90